Arvada, CO (80002)

6:41 PM MDT on September 16, 2014 (GMT -0600)
Hoyt Ct | Change Station
CLOSE
Current Station
Personal Weather Station
Location: Arvada, CO
Elevation: 5512 ft
Nearby Weather Stations

Elev 5512 ft 39.82 °N, 105.10 °W | Updated 4 minutes ago

Partly Cloudy
Partly Cloudy
73.9 °F
Feels Like 77 °F
N
0.0
Wind Variable Wind from NNE
Gusts 0.0 mph

Today
High -- | Low -- °F
--% Chance of Precip.
Yesterday
High -- | Low -- °F
Precip. -- in
6:42 AM 7:07 PM
Last Quarter, 41% visible
Pressure 30.13 in
Visibility 40.0 miles
Clouds Scattered Clouds 12000 ft
Heat Index 77 °F
Dew Point 41 °F
Humidity 31%
Rainfall 0.00 in
Snow Depth 1 in , 0 in , 87 in
UV 1 out of 12
Pollen 8.10 out of 12
Ozone Moderate
PM2.5 Good
Flu Activity Not available.
METAR KBJC 162346Z 08005KT 40SM SCT120 27/03 A3013

More Conditions Fewer Conditions

Pressure 30.13 in
Visibility 40.0 miles
Clouds Scattered Clouds 12000 ft
Heat Index 77 °F
Dew Point 41 °F
Humidity 31%
Rainfall 0.00 in
Snow Depth 1 in , 0 in , 87 in
UV 1 out of 12
Pollen 8.10 out of 12
Ozone Moderate
PM2.5 Good
Flu Activity Not available.
METAR KBJC 162346Z 08005KT 40SM SCT120 27/03 A3013

More Conditions Fewer Conditions

10-Day Weather Forecast

Almanac

Astronomy

Sep. 16, 2014 Rise Set
Actual Time 6:42 AM MDT 7:07 PM MDT
Civil Twilight 6:15 AM MDT 7:34 PM MDT
Nautical Twilight 5:43 AM MDT 8:06 PM MDT
Astronomical Twilight 5:10 AM MDT 8:38 PM MDT
Moon No Moon Rise 2:32 PM MDT (9/16)
Length of Visible Light 13h 18m
Length of Day
12h 24m
Tomorrow will be 2m 35s shorter.
Last Quarter, 41% of the Moon is Illuminated
Today
Last Quarter
Sep 24
New
Oct 1
First Quarter
Oct 8
Full
Oct 15
Last Quarter

Today's Extremes

State Highs State Lows

Community

WunderPhotos

Upload Photos

1,753,935 photos uploaded!

Nearby

Air Quality

  Air Quality AQ Index Pollutant
Yesterday Good
OZONE
Yesterday Good
PM10
Current Moderate
OZONE
Current Good
PM2.5
Tuesday Moderate
OZONE
Tuesday Good
PM2.5
Wednesday Moderate
OZONE
Wednesday Good
PM2.5

Snow Depth

Station Depth Elevation
Lily Pond 1 in 11000 ft
El Diente Peak 0 in 10200 ft
Vail Mountain 87 in 10300 ft
Independence Pass 186 in 10600 ft
Mancos 1 in 10000 ft

Earthquake Activity

City Distance Mag. Time & Date
No recent earthquake activity has been reported nearby.
Minimum magnitude displayed is 2.5.

Coastal Water Temperatures

Place Temperature
No Stations Reporting

Nearby Weather Stations